Time;durP1;ratioP1;P1;durP2;ratioP2;P2;SDS_P1;SDS_P2;PMS_P1;PMS_P2;Temp;Humidity;BMP_temperature;BMP_pressure;BME280_temperature;BME280_humidity;BME280_pressure;Samples;Min_cycle;Max_cycle;Signal;HPM_P1;HPM_P2
2021/04/19 00:00:44;;;;;;;3.73;3.10;;;;;;;4.64;100.00;101554.38;5072142;28;21013;-66
2021/04/19 00:03:11;;;;;;;4.77;2.00;;;;;;;4.63;100.00;101552.75;5073537;28;20437;-67
2021/04/19 00:05:37;;;;;;;4.37;3.97;;;;;;;4.56;100.00;101560.16;5073155;28;20472;-67
2021/04/19 00:08:04;;;;;;;1.90;1.27;;;;;;;4.40;100.00;101550.94;5073313;28;20491;-67
2021/04/19 00:10:31;;;;;;;3.10;2.63;;;;;;;4.40;100.00;101542.91;5072706;28;20998;-67
2021/04/19 00:12:56;;;;;;;6.47;2.43;;;;;;;4.47;100.00;101554.34;5073204;28;20529;-66
2021/04/19 00:15:23;;;;;;;6.40;2.10;;;;;;;4.40;100.00;101553.63;5072685;28;20441;-67
2021/04/19 00:17:49;;;;;;;4.67;2.97;;;;;;;4.36;100.00;101552.47;5072916;28;20957;-67
2021/04/19 00:20:16;;;;;;;11.30;3.33;;;;;;;4.17;100.00;101548.31;5072705;28;20485;-67
2021/04/19 00:22:43;;;;;;;1.47;1.37;;;;;;;4.19;100.00;101547.00;5073154;28;20441;-66
2021/04/19 00:25:10;;;;;;;19.10;4.17;;;;;;;4.21;100.00;101538.75;5072973;28;20441;-67
2021/04/19 00:27:36;;;;;;;3.53;2.40;;;;;;;4.18;100.00;101544.56;5073195;28;20446;-67
2021/04/19 00:30:04;;;;;;;1.10;1.10;;;;;;;4.23;100.00;101545.47;5072955;28;20496;-67
2021/04/19 00:32:31;;;;;;;9.63;3.50;;;;;;;4.21;100.00;101544.09;5072887;28;20441;-67
2021/04/19 00:34:57;;;;;;;1.50;1.40;;;;;;;4.16;100.00;101542.13;5073911;28;20494;-66
2021/04/19 00:37:23;;;;;;;1.47;0.97;;;;;;;4.24;100.00;101538.25;5077257;28;20441;-66
2021/04/19 00:39:49;;;;;;;2.40;0.97;;;;;;;4.29;100.00;101549.94;5076827;28;20514;-67
2021/04/19 00:42:16;;;;;;;1.10;0.73;;;;;;;4.30;100.00;101543.50;5077178;28;20586;-68
2021/04/19 00:44:44;;;;;;;3.03;2.60;;;;;;;4.29;100.00;101547.25;5076693;28;20456;-68
2021/04/19 00:47:10;;;;;;;6.43;1.37;;;;;;;4.35;100.00;101548.16;5076873;28;20954;-68
2021/04/19 00:49:37;;;;;;;1.37;1.30;;;;;;;4.21;100.00;101539.56;5076741;28;20461;-68
2021/04/19 00:52:04;;;;;;;2.63;1.13;;;;;;;4.26;100.00;101536.97;5076966;28;20432;-68
2021/04/19 00:54:30;;;;;;;2.00;0.87;;;;;;;4.33;100.00;101544.88;5076973;28;20445;-68
2021/04/19 00:56:57;;;;;;;3.77;2.60;;;;;;;4.28;100.00;101552.81;5076216;28;20445;-68
2021/04/19 00:59:23;;;;;;;1.27;0.60;;;;;;;4.40;100.00;101542.91;5076805;28;20457;-68
2021/04/19 01:01:49;;;;;;;2.27;1.50;;;;;;;4.49;100.00;101535.31;5075512;28;20492;-68
2021/04/19 01:04:15;;;;;;;2.10;1.90;;;;;;;4.50;100.00;101542.28;5076326;28;20929;-68
2021/04/19 01:06:42;;;;;;;3.23;1.70;;;;;;;4.60;100.00;101544.38;5076763;28;20437;-68
2021/04/19 01:09:09;;;;;;;3.10;2.00;;;;;;;4.60;100.00;101547.03;5076435;28;20464;-68
2021/04/19 01:11:35;;;;;;;5.30;2.57;;;;;;;4.62;100.00;101548.44;5076386;28;20944;-69
2021/04/19 01:14:02;;;;;;;6.77;1.10;;;;;;;4.76;100.00;101552.50;5076268;28;20444;-68
2021/04/19 01:16:28;;;;;;;4.13;1.53;;;;;;;4.90;100.00;101554.91;5076205;28;20464;-68
2021/04/19 01:18:54;;;;;;;4.20;1.77;;;;;;;4.95;100.00;101555.00;5076111;28;20445;-68
2021/04/19 01:21:21;;;;;;;1.80;1.53;;;;;;;5.07;100.00;101559.25;5075754;28;20485;-69
2021/04/19 01:23:47;;;;;;;1.63;1.53;;;;;;;5.10;100.00;101555.28;5076164;28;20441;-68
2021/04/19 01:26:13;;;;;;;3.03;1.10;;;;;;;5.18;100.00;101559.44;5075833;28;20437;-68
2021/04/19 01:28:39;;;;;;;1.03;0.70;;;;;;;5.23;100.00;101555.00;5076358;28;20494;-68
2021/04/19 01:31:05;;;;;;;7.83;1.63;;;;;;;5.32;100.00;101553.56;5075942;28;20469;-68
2021/04/19 01:33:32;;;;;;;1.37;1.20;;;;;;;5.37;100.00;101558.19;5076244;28;21004;-68
2021/04/19 01:35:58;;;;;;;1.57;1.07;;;;;;;5.35;100.00;101554.09;5075266;28;20973;-68
2021/04/19 01:38:25;;;;;;;3.93;0.67;;;;;;;5.50;100.00;101554.38;5075926;28;20445;-68
2021/04/19 01:40:53;;;;;;;2.70;1.13;;;;;;;5.56;100.00;101558.78;5075280;28;20500;-68
2021/04/19 01:43:20;;;;;;;3.63;1.43;;;;;;;5.55;100.00;101549.09;5075923;28;20830;-68
2021/04/19 01:45:46;;;;;;;1.50;1.10;;;;;;;5.57;100.00;101549.66;5075596;28;20452;-68
2021/04/19 01:48:13;;;;;;;8.50;2.23;;;;;;;5.60;100.00;101549.16;5075922;28;20441;-68
2021/04/19 01:50:39;;;;;;;2.63;2.40;;;;;;;5.58;100.00;101548.63;5074990;28;20472;-68
2021/04/19 01:53:05;;;;;;;4.70;1.37;;;;;;;5.57;100.00;101557.72;5075957;28;20449;-69
2021/04/19 01:55:35;;;;;;;2.10;1.60;;;;;;;5.57;100.00;101557.72;5075598;28;20454;-69
2021/04/19 01:58:04;;;;;;;1.60;1.50;;;;;;;5.57;100.00;101553.16;5075805;28;20449;-68
2021/04/19 02:00:33;;;;;;;2.80;1.20;;;;;;;5.61;100.00;101553.47;5075235;28;20555;-68
2021/04/19 02:03:09;;;;;;;2.87;1.80;;;;;;;5.60;100.00;101546.47;5075350;28;20449;-68
2021/04/19 02:05:46;;;;;;;5.30;3.33;;;;;;;5.68;100.00;101551.47;5075499;28;20502;-68
2021/04/19 02:08:22;;;;;;;1.30;1.20;;;;;;;5.73;100.00;101556.91;5075174;28;20519;-67
2021/04/19 02:10:56;;;;;;;1.37;1.03;;;;;;;5.81;100.00;101551.13;5087833;22;21088;-69
2021/04/19 02:13:33;;;;;;;2.20;1.10;;;;;;;5.81;100.00;101559.19;5055040;28;20442;-69
2021/04/19 02:16:07;;;;;;;3.57;1.43;;;;;;;5.86;100.00;101553.09;5054785;28;20454;-70
2021/04/19 02:18:44;;;;;;;1.90;1.30;;;;;;;5.88;100.00;101558.22;5054633;28;20939;-69
2021/04/19 02:21:16;;;;;;;1.73;1.43;;;;;;;5.96;100.00;101553.25;5054271;28;20519;-69
2021/04/19 02:23:48;;;;;;;1.47;1.37;;;;;;;6.01;100.00;101552.53;5054837;28;20442;-69
2021/04/19 02:26:17;;;;;;;3.00;2.23;;;;;;;6.12;100.00;101558.88;5054899;28;20815;-69
2021/04/19 02:28:50;;;;;;;3.20;1.93;;;;;;;6.14;100.00;101551.38;5054795;28;20439;-69
2021/04/19 02:31:18;;;;;;;1.60;1.50;;;;;;;6.07;100.00;101551.56;5055039;28;20465;-69
2021/04/19 02:33:45;;;;;;;5.03;2.73;;;;;;;6.14;100.00;101556.75;5054798;28;20454;-70
2021/04/19 02:36:12;;;;;;;4.10;1.17;;;;;;;6.16;100.00;101550.06;5054718;28;20944;-69
2021/04/19 02:38:41;;;;;;;3.23;2.00;;;;;;;6.18;100.00;101564.06;5054563;28;20446;-69
2021/04/19 02:41:12;;;;;;;2.23;1.40;;;;;;;6.15;100.00;101558.38;5054683;28;20486;-70
2021/04/19 02:43:41;;;;;;;5.80;3.40;;;;;;;6.18;100.00;101553.31;5054309;28;20954;-69
2021/04/19 02:46:08;;;;;;;3.13;1.47;;;;;;;6.18;100.00;101547.13;5054883;28;20446;-69
2021/04/19 02:48:35;;;;;;;3.63;2.17;;;;;;;6.14;100.00;101556.75;5055849;28;20473;-70
2021/04/19 02:51:04;;;;;;;2.10;1.23;;;;;;;6.19;100.00;101548.75;5054207;28;20807;-70
2021/04/19 02:53:31;;;;;;;3.23;1.50;;;;;;;6.22;100.00;101549.06;5054584;28;20448;-69
2021/04/19 02:55:57;;;;;;;4.20;1.70;;;;;;;6.20;100.00;101553.91;5054156;28;20928;-69
2021/04/19 02:58:29;;;;;;;2.10;1.93;;;;;;;6.23;100.00;101542.63;5053899;28;20430;-69
2021/04/19 03:00:57;;;;;;;2.03;1.83;;;;;;;6.26;100.00;101552.88;5054084;28;20492;-69
2021/04/19 03:03:25;;;;;;;1.63;0.80;;;;;;;6.32;100.00;101548.38;5054338;28;20449;-69
2021/04/19 03:05:53;;;;;;;2.03;1.27;;;;;;;6.32;100.00;101541.13;5054282;28;20446;-68
2021/04/19 03:08:20;;;;;;;3.13;1.63;;;;;;;6.35;100.00;101541.69;5053997;28;20443;-69
2021/04/19 03:10:53;;;;;;;3.70;3.37;;;;;;;6.38;100.00;101544.72;5053359;28;20853;-70
2021/04/19 03:13:21;;;;;;;2.03;1.13;;;;;;;6.32;100.00;101543.81;5054246;28;20431;-69
2021/04/19 03:15:51;;;;;;;2.60;1.37;;;;;;;6.35;100.00;101547.09;5054109;28;20442;-69
2021/04/19 03:18:20;;;;;;;5.23;1.53;;;;;;;6.32;100.00;101546.50;5053934;28;20973;-69
2021/04/19 03:21:04;;;;;;;3.17;1.87;;;;;;;6.27;100.00;101546.44;5053681;28;20486;-68
2021/04/19 03:23:32;;;;;;;4.37;1.60;;;;;;;6.29;100.00;101540.84;5053749;28;20895;-69
2021/04/19 03:26:00;;;;;;;6.87;2.07;;;;;;;6.26;100.00;101538.63;5053506;28;20438;-69
2021/04/19 03:28:28;;;;;;;3.57;1.73;;;;;;;6.29;100.00;101536.25;5053911;28;20431;-69
2021/04/19 03:30:54;;;;;;;1.33;1.23;;;;;;;6.33;100.00;101536.59;5053371;28;20474;-69
2021/04/19 03:33:22;;;;;;;1.57;1.47;;;;;;;6.27;100.00;101538.38;5053477;28;20446;-69
2021/04/19 03:35:49;;;;;;;1.53;1.30;;;;;;;6.24;100.00;101541.56;5053781;28;20449;-69
2021/04/19 03:38:19;;;;;;;7.60;2.00;;;;;;;6.16;100.00;101544.69;5053140;28;20943;-68
2021/04/19 03:40:47;;;;;;;1.10;1.00;;;;;;;6.13;100.00;101555.13;5053621;28;20486;-69
2021/04/19 03:43:17;;;;;;;3.40;2.37;;;;;;;6.08;100.00;101542.41;5033789;28;20566;-68
2021/04/19 03:45:47;;;;;;;1.43;1.33;;;;;;;6.12;100.00;101553.50;5033491;28;20987;-68
2021/04/19 03:48:17;;;;;;;3.07;1.30;;;;;;;6.06;100.00;101552.59;5053390;28;20438;-69
2021/04/19 03:50:48;;;;;;;5.00;2.37;;;;;;;6.06;100.00;101561.50;5053400;28;20458;-69
2021/04/19 03:53:16;;;;;;;7.63;1.60;;;;;;;6.07;100.00;101565.00;5052952;28;20967;-69
2021/04/19 03:55:44;;;;;;;2.57;2.37;;;;;;;5.92;100.00;101559.38;5053061;28;20821;-69
2021/04/19 03:58:13;;;;;;;5.70;2.33;;;;;;;5.97;100.00;101557.56;5052595;28;20446;-69
2021/04/19 04:00:42;;;;;;;4.50;1.73;;;;;;;5.90;100.00;101548.84;5053426;28;20856;-69
2021/04/19 04:03:08;;;;;;;2.47;1.60;;;;;;;6.00;100.00;101567.03;5053283;28;20446;-69
2021/04/19 04:05:35;;;;;;;1.33;1.23;;;;;;;5.90;100.00;101569.53;5053500;28;20446;-69
2021/04/19 04:08:03;;;;;;;4.33;2.03;;;;;;;5.97;100.00;101564.81;5052856;28;20523;-70
2021/04/19 04:10:30;;;;;;;3.63;1.47;;;;;;;6.02;100.00;101562.22;5038782;28;20563;-69
2021/04/19 04:12:58;;;;;;;4.37;2.07;;;;;;;6.03;100.00;101567.34;5053409;28;20451;-69
2021/04/19 04:15:24;;;;;;;2.20;1.30;;;;;;;6.07;100.00;101556.94;5053156;28;20438;-69
2021/04/19 04:17:50;;;;;;;1.47;1.33;;;;;;;6.14;100.00;101564.81;5053490;28;20512;-68
2021/04/19 04:20:16;;;;;;;4.67;2.57;;;;;;;6.20;100.00;101555.78;5053545;28;20465;-66
2021/04/19 04:22:43;;;;;;;5.70;2.93;;;;;;;6.23;100.00;101566.03;5053362;28;20507;-69
2021/04/19 04:25:11;;;;;;;3.07;2.20;;;;;;;6.28;100.00;101566.91;5053284;28;20450;-69
2021/04/19 04:27:37;;;;;;;1.37;1.20;;;;;;;6.27;100.00;101564.47;5052947;28;20439;-68
2021/04/19 04:30:04;;;;;;;1.40;0.70;;;;;;;6.27;100.00;101559.88;5053053;28;20512;-69
2021/04/19 04:32:30;;;;;;;7.07;3.30;;;;;;;6.29;100.00;101559.66;5054721;28;20445;-69
2021/04/19 04:34:56;;;;;;;2.87;1.60;;;;;;;6.13;100.00;101549.75;5053183;28;20520;-69
2021/04/19 04:37:22;;;;;;;5.90;1.30;;;;;;;5.92;100.00;101551.31;5053099;28;20442;-69
2021/04/19 04:39:48;;;;;;;2.63;1.80;;;;;;;5.76;100.00;101550.25;5052684;28;20465;-68
2021/04/19 04:42:18;;;;;;;2.20;1.67;;;;;;;5.77;100.00;101550.00;5052943;28;20477;-69
2021/04/19 04:44:47;;;;;;;1.80;1.37;;;;;;;5.86;100.00;101557.66;5052657;28;20958;-70
2021/04/19 04:47:20;;;;;;;3.30;1.17;;;;;;;6.00;100.00;101567.84;5052684;28;20973;-69
2021/04/19 04:49:56;;;;;;;0.87;0.73;;;;;;;6.10;100.00;101575.25;5053129;28;20462;-70
2021/04/19 04:52:22;;;;;;;5.60;2.07;;;;;;;6.12;100.00;101578.53;5052657;28;20858;-70
2021/04/19 04:54:50;;;;;;;3.00;1.73;;;;;;;6.19;100.00;101586.41;5052960;28;20430;-69
2021/04/19 04:57:21;;;;;;;4.63;1.63;;;;;;;6.25;100.00;101572.78;5052905;28;20446;-69
2021/04/19 04:59:49;;;;;;;4.40;2.20;;;;;;;6.30;100.00;101574.75;5052846;28;20462;-69
2021/04/19 05:02:19;;;;;;;3.60;3.30;;;;;;;6.34;100.00;101577.75;5052911;28;20529;-69
2021/04/19 05:04:46;;;;;;;3.90;2.73;;;;;;;6.40;100.00;101572.19;5052889;28;20438;-69
2021/04/19 05:07:12;;;;;;;1.17;1.07;;;;;;;6.44;100.00;101573.31;5052862;28;20448;-69
2021/04/19 05:09:38;;;;;;;0.80;0.67;;;;;;;6.48;100.00;101568.25;5052521;28;20474;-69
2021/04/19 05:12:05;;;;;;;8.27;1.93;;;;;;;6.48;100.00;101573.63;5053095;28;20426;-69
2021/04/19 05:14:34;;;;;;;4.20;1.43;;;;;;;6.52;100.00;101574.75;5052480;28;20970;-69
2021/04/19 05:17:00;;;;;;;6.47;2.97;;;;;;;6.53;100.00;101571.81;5052861;28;20446;-69
2021/04/19 05:19:26;;;;;;;7.60;4.30;;;;;;;6.52;100.00;101570.19;5052637;28;20449;-69
2021/04/19 05:21:52;;;;;;;1.43;0.93;;;;;;;6.57;100.00;101578.34;5054905;28;20517;-70
2021/04/19 05:24:17;;;;;;;2.83;1.20;;;;;;;6.53;100.00;101571.00;5056483;28;20453;-69
2021/04/19 05:26:43;;;;;;;3.70;2.00;;;;;;;6.59;100.00;101572.69;5056306;28;20450;-70
2021/04/19 05:29:10;;;;;;;4.13;2.23;;;;;;;6.51;100.00;101570.44;5056398;28;20822;-70
2021/04/19 05:31:36;;;;;;;1.27;1.07;;;;;;;6.45;100.00;101564.16;5056228;28;20556;-69
2021/04/19 05:34:02;;;;;;;1.30;1.20;;;;;;;6.55;100.00;101558.94;5056243;28;20449;-68
2021/04/19 05:36:29;;;;;;;5.20;1.70;;;;;;;6.62;100.00;101564.13;5056258;28;20441;-69
2021/04/19 05:38:56;;;;;;;3.33;0.90;;;;;;;6.65;100.00;101563.63;5056164;28;20442;-70
2021/04/19 05:41:23;;;;;;;2.27;1.40;;;;;;;6.73;100.00;101565.88;5056096;28;20547;-70
2021/04/19 05:43:50;;;;;;;7.87;4.17;;;;;;;6.83;100.00;101567.88;5056187;28;20531;-69
2021/04/19 05:46:17;;;;;;;7.70;3.60;;;;;;;6.86;100.00;101561.16;5056246;28;20485;-68
2021/04/19 05:48:45;;;;;;;3.23;1.80;;;;;;;6.87;100.00;101562.81;5055930;28;20516;-69
2021/04/19 05:51:18;;;;;;;3.40;1.37;;;;;;;6.91;100.00;101577.41;5055852;28;20465;-70
2021/04/19 05:53:45;;;;;;;8.37;2.70;;;;;;;6.86;100.00;101586.22;5055646;28;20422;-69
2021/04/19 05:56:25;;;;;;;3.60;2.00;;;;;;;6.90;100.00;101578.44;5056412;28;20943;-69
2021/04/19 05:58:57;;;;;;;4.10;1.90;;;;;;;6.95;100.00;101579.34;5055759;28;20430;-69
2021/04/19 06:01:25;;;;;;;1.87;1.73;;;;;;;7.00;100.00;101586.66;5055705;28;20482;-69
2021/04/19 06:03:57;;;;;;;2.90;1.93;;;;;;;6.98;100.00;101588.78;5055769;28;20435;-70
2021/04/19 06:06:36;;;;;;;3.07;1.63;;;;;;;6.91;100.00;101583.59;5056039;28;20430;-70
2021/04/19 06:09:08;;;;;;;5.87;2.77;;;;;;;6.99;100.00;101585.00;5055754;28;20470;-70
2021/04/19 06:11:40;;;;;;;3.67;2.07;;;;;;;7.05;100.00;101584.03;5055687;28;20481;-70
2021/04/19 06:14:09;;;;;;;5.07;3.27;;;;;;;7.10;100.00;101584.06;5055496;28;20433;-70
2021/04/19 06:16:38;;;;;;;5.53;2.90;;;;;;;7.08;100.00;101586.19;5066592;28;21017;-70
2021/04/19 06:19:05;;;;;;;5.03;2.23;;;;;;;7.12;100.00;101590.00;5058799;28;20529;-70
2021/04/19 06:21:32;;;;;;;9.70;2.20;;;;;;;7.15;100.00;101594.91;5055171;28;20538;-70
2021/04/19 06:24:00;;;;;;;4.43;3.27;;;;;;;7.25;100.00;101594.19;5055444;28;20457;-70
2021/04/19 06:26:26;;;;;;;6.67;2.70;;;;;;;7.29;100.00;101579.94;5055354;28;20492;-70
2021/04/19 06:28:52;;;;;;;5.07;2.20;;;;;;;7.31;100.00;101582.41;5055223;28;20454;-70
2021/04/19 06:31:20;;;;;;;3.90;2.10;;;;;;;7.34;100.00;101588.09;5055187;28;20466;-70
2021/04/19 06:34:02;;;;;;;5.90;2.53;;;;;;;7.38;100.00;101584.88;5054272;28;20445;-71
2021/04/19 06:36:30;;;;;;;5.70;2.53;;;;;;;7.41;100.00;101592.47;5055177;28;20423;-71
2021/04/19 06:38:56;;;;;;;5.83;2.47;;;;;;;7.25;100.00;101589.59;5054802;28;20927;-71
2021/04/19 06:41:22;;;;;;;6.33;4.10;;;;;;;7.20;100.00;101589.56;5054873;28;20517;-70
2021/04/19 06:43:48;;;;;;;2.90;2.67;;;;;;;7.23;100.00;101580.16;5055177;28;20441;-69
2021/04/19 06:46:15;;;;;;;5.53;4.07;;;;;;;7.36;100.00;101587.84;5054875;28;20448;-70
2021/04/19 06:48:42;;;;;;;5.47;2.87;;;;;;;7.50;100.00;101589.06;5054841;28;20446;-70
2021/04/19 06:51:10;;;;;;;3.40;2.30;;;;;;;7.53;100.00;101587.75;5054780;28;20840;-69
2021/04/19 06:53:37;;;;;;;5.03;3.20;;;;;;;7.65;100.00;101593.75;5053909;28;20899;-69
2021/04/19 06:56:05;;;;;;;1.27;1.17;;;;;;;7.74;100.00;101584.13;5054660;28;20438;-68
2021/04/19 06:58:33;;;;;;;11.67;4.83;;;;;;;7.86;100.00;101588.56;5054593;28;20438;-70
2021/04/19 07:01:00;;;;;;;3.77;1.97;;;;;;;8.00;100.00;101592.44;5054422;28;20482;-70
2021/04/19 07:03:27;;;;;;;4.53;3.23;;;;;;;8.08;100.00;101586.56;5054654;28;20449;-70
2021/04/19 07:05:54;;;;;;;4.00;2.23;;;;;;;8.17;100.00;101587.69;5054526;28;20446;-70
2021/04/19 07:08:28;;;;;;;6.27;3.50;;;;;;;8.26;100.00;101572.63;5054068;28;20939;-70
2021/04/19 07:10:59;;;;;;;3.00;2.30;;;;;;;8.27;100.00;101582.34;5053967;28;20875;-69
2021/04/19 07:13:26;;;;;;;5.60;3.23;;;;;;;8.32;100.00;101587.81;5054081;28;20484;-70
2021/04/19 07:15:52;;;;;;;7.43;4.57;;;;;;;8.25;100.00;101589.09;5054003;28;20442;-70
2021/04/19 07:18:19;;;;;;;7.00;3.63;;;;;;;8.39;100.00;101567.88;5053880;28;20946;-68
2021/04/19 07:20:46;;;;;;;3.67;2.97;;;;;;;8.43;100.00;101579.78;5054148;28;20466;-68
2021/04/19 07:23:13;;;;;;;3.83;2.30;;;;;;;8.52;100.00;101586.31;5054026;28;20449;-69
2021/04/19 07:25:39;;;;;;;10.57;3.97;;;;;;;8.54;100.00;101592.25;5054145;28;20496;-68
2021/04/19 07:28:06;;;;;;;3.50;2.70;;;;;;;8.54;100.00;101587.69;5053880;28;20446;-67
2021/04/19 07:30:33;;;;;;;6.97;4.67;;;;;;;8.45;100.00;101591.13;5053741;28;20469;-68
2021/04/19 07:33:00;;;;;;;5.07;3.33;;;;;;;8.45;100.00;101585.72;5053879;28;20484;-67
2021/04/19 07:35:27;;;;;;;3.97;2.33;;;;;;;8.47;100.00;101587.09;5053856;28;20490;-68
2021/04/19 07:37:59;;;;;;;5.47;3.00;;;;;;;8.49;100.00;101568.72;5053722;28;20442;-68
2021/04/19 07:40:31;;;;;;;3.90;2.83;;;;;;;8.54;100.00;101539.09;5053708;28;20809;-68
2021/04/19 07:43:12;;;;;;;5.17;2.67;;;;;;;8.66;100.00;101522.63;5053682;28;20500;-67
2021/04/19 07:45:39;;;;;;;8.07;2.80;;;;;;;8.68;100.00;101542.09;5053555;28;20899;-69
2021/04/19 07:48:06;;;;;;;7.20;2.47;;;;;;;8.78;100.00;101561.03;5053864;28;20442;-68
2021/04/19 07:50:32;;;;;;;5.80;3.63;;;;;;;8.86;100.00;101572.44;5053665;28;20458;-69
2021/04/19 07:53:00;;;;;;;7.80;4.80;;;;;;;9.02;100.00;101576.78;5053822;28;20958;-68
2021/04/19 07:55:28;;;;;;;3.37;2.80;;;;;;;8.88;100.00;101567.56;5053686;28;20529;-68
2021/04/19 07:57:55;;;;;;;7.03;3.63;;;;;;;9.13;100.00;101564.13;5053595;28;20447;-68
2021/04/19 08:00:31;;;;;;;8.87;5.67;;;;;;;9.20;100.00;101560.06;5055605;28;20500;-68
2021/04/19 08:03:05;;;;;;;10.63;3.43;;;;;;;9.45;100.00;101564.69;5056467;28;20784;-66
2021/04/19 08:05:41;;;;;;;9.10;3.93;;;;;;;9.57;100.00;101567.97;5053398;28;20435;-68
2021/04/19 08:08:09;;;;;;;3.70;2.40;;;;;;;9.58;100.00;101576.88;5053401;28;20499;-67
2021/04/19 08:10:38;;;;;;;6.33;3.23;;;;;;;9.57;100.00;101584.19;5077259;22;20806;-73
2021/04/19 08:13:10;;;;;;;6.33;3.97;;;;;;;9.57;100.00;101578.78;5052931;28;20485;-74
2021/04/19 08:15:39;;;;;;;5.33;4.07;;;;;;;9.58;100.00;101579.59;5053183;28;20805;-74
2021/04/19 08:18:09;;;;;;;9.30;5.87;;;;;;;9.45;99.85;101593.63;5053259;28;20435;-74
2021/04/19 08:20:36;;;;;;;6.47;3.53;;;;;;;9.44;99.44;101598.25;5052977;28;20458;-74
2021/04/19 08:23:11;;;;;;;7.63;5.27;;;;;;;9.44;98.97;101592.84;5053243;28;20496;-74
2021/04/19 08:25:40;;;;;;;9.13;4.23;;;;;;;9.52;98.74;101586.09;5052710;28;20458;-74
2021/04/19 08:28:08;;;;;;;8.00;4.50;;;;;;;9.63;99.43;101586.91;5053153;28;20446;-74
2021/04/19 08:30:35;;;;;;;11.20;5.23;;;;;;;9.72;99.28;101594.19;5052621;28;20910;-74
2021/04/19 08:33:02;;;;;;;11.73;4.40;;;;;;;9.80;99.31;101584.75;5053060;28;20500;-74
2021/04/19 08:35:29;;;;;;;6.10;3.07;;;;;;;9.58;99.41;101582.28;5053040;28;20442;-74
2021/04/19 08:37:57;;;;;;;7.07;4.30;;;;;;;9.67;99.37;101588.78;5052988;28;20442;-74
2021/04/19 08:40:24;;;;;;;7.73;3.63;;;;;;;9.54;99.96;101586.63;5052915;28;20488;-74
2021/04/19 08:42:52;;;;;;;9.67;4.47;;;;;;;9.59;99.82;101586.63;5052573;28;20478;-74
2021/04/19 08:45:18;;;;;;;6.73;4.03;;;;;;;9.56;100.00;101588.00;5052927;28;20794;-72
2021/04/19 08:47:45;;;;;;;4.40;4.03;;;;;;;9.51;100.00;101576.34;5052668;28;20952;-74
2021/04/19 08:50:17;;;;;;;6.40;3.67;;;;;;;9.59;100.00;101573.09;5053012;28;20881;-74
2021/04/19 08:52:44;;;;;;;5.30;4.67;;;;;;;9.71;100.00;101575.53;5053031;28;20505;-75
2021/04/19 08:55:13;;;;;;;5.20;3.70;;;;;;;9.86;100.00;101562.81;5052876;28;20867;-74
2021/04/19 08:57:41;;;;;;;11.30;5.00;;;;;;;9.97;100.00;101565.53;5056891;28;20449;-74
2021/04/19 09:00:11;;;;;;;12.00;5.70;;;;;;;10.05;100.00;101560.38;5056841;28;20873;-74
2021/04/19 09:02:37;;;;;;;6.50;2.83;;;;;;;9.86;100.00;101560.09;5057015;28;20514;-74
2021/04/19 09:05:09;;;;;;;5.07;4.20;;;;;;;10.11;100.00;101561.97;5056623;28;20454;-74
2021/04/19 09:07:37;;;;;;;3.50;2.93;;;;;;;9.97;99.87;101557.41;5056424;28;20903;-74
2021/04/19 09:10:04;;;;;;;7.30;4.13;;;;;;;10.33;99.62;101553.56;5056117;28;20968;-75
2021/04/19 09:12:31;;;;;;;18.40;3.80;;;;;;;10.63;98.52;101554.53;5062552;28;20465;-74
2021/04/19 09:15:13;;;;;;;5.93;3.53;;;;;;;10.57;98.00;101545.59;5056734;28;20464;-74
2021/04/19 09:17:39;;;;;;;8.83;3.60;;;;;;;10.44;97.82;101545.38;5056979;28;20445;-74
2021/04/19 09:20:08;;;;;;;10.73;4.00;;;;;;;10.42;99.28;101536.75;5056629;28;20446;-74
2021/04/19 09:22:36;;;;;;;9.37;5.07;;;;;;;10.59;99.98;101532.63;5056683;28;20485;-75
2021/04/19 09:25:07;;;;;;;8.97;3.63;;;;;;;10.77;99.26;101533.06;5057035;28;20491;-74
2021/04/19 09:27:53;;;;;;;7.17;2.83;;;;;;;10.84;99.05;101531.66;5056980;28;20576;-74
2021/04/19 09:30:35;;;;;;;5.37;3.97;;;;;;;10.68;100.00;101535.56;5056401;28;20855;-74
2021/04/19 09:33:19;;;;;;;6.60;3.43;;;;;;;10.45;100.00;101531.59;5056542;28;20422;-74
2021/04/19 09:35:45;;;;;;;12.33;4.70;;;;;;;10.67;100.00;101524.97;5056392;28;20937;-74
2021/04/19 09:38:14;;;;;;;9.03;4.80;;;;;;;10.77;100.00;101523.03;5056780;28;20444;-75
2021/04/19 09:40:47;;;;;;;6.17;4.30;;;;;;;10.84;100.00;101523.53;5056485;28;20454;-74
2021/04/19 09:43:29;;;;;;;4.17;2.70;;;;;;;10.85;99.96;101524.38;5056517;28;20519;-74
2021/04/19 09:45:57;;;;;;;7.47;4.10;;;;;;;10.93;100.00;101522.94;5056605;28;20437;-74
2021/04/19 09:48:39;;;;;;;10.10;3.63;;;;;;;11.13;100.00;101525.53;5056655;28;20443;-74
2021/04/19 09:51:12;;;;;;;4.40;3.47;;;;;;;11.20;100.00;101525.22;5056551;28;20485;-74
2021/04/19 09:53:40;;;;;;;10.50;4.27;;;;;;;11.23;100.00;101513.81;5056597;28;20422;-74
2021/04/19 09:56:06;;;;;;;13.93;4.07;;;;;;;11.35;100.00;101516.97;5056744;28;20667;-73
2021/04/19 09:58:32;;;;;;;8.70;4.87;;;;;;;11.60;100.00;101513.25;5056322;28;20499;-74
2021/04/19 10:01:00;;;;;;;7.77;4.40;;;;;;;11.65;98.25;101515.91;5056096;28;20858;-73
2021/04/19 10:03:27;;;;;;;3.33;2.47;;;;;;;11.96;97.04;101519.19;5056063;28;20434;-74
2021/04/19 10:05:55;;;;;;;9.57;5.50;;;;;;;11.93;96.21;101524.38;5055952;28;20981;-74
2021/04/19 10:08:22;;;;;;;8.40;3.70;;;;;;;11.93;95.80;101521.66;5054699;28;20442;-74
2021/04/19 10:10:56;;;;;;;6.63;3.40;;;;;;;11.96;95.50;101521.09;5055275;28;20474;-71
2021/04/19 10:13:29;;;;;;;6.17;4.23;;;;;;;12.10;95.36;101524.75;5055101;28;20536;-72
2021/04/19 10:16:07;;;;;;;7.50;4.33;;;;;;;12.18;94.99;101524.13;5055221;28;21013;-73
2021/04/19 10:18:33;;;;;;;9.60;5.00;;;;;;;12.25;95.16;101524.56;5055323;28;20781;-74
2021/04/19 10:21:00;;;;;;;5.50;4.17;;;;;;;12.24;94.94;101517.50;5055032;28;20478;-74
2021/04/19 10:23:35;;;;;;;5.20;3.70;;;;;;;12.38;94.27;101514.91;5055340;28;20465;-74
2021/04/19 10:26:03;;;;;;;7.47;3.97;;;;;;;12.55;93.95;101504.38;5055408;28;20465;-73
2021/04/19 10:28:35;;;;;;;8.70;4.93;;;;;;;12.65;92.87;101506.13;5055370;28;20450;-74
2021/04/19 10:31:12;;;;;;;8.33;4.90;;;;;;;12.75;91.76;101506.03;5055428;28;20469;-74
2021/04/19 10:33:39;;;;;;;8.17;4.80;;;;;;;12.91;91.78;101511.25;5054882;28;20446;-73
2021/04/19 10:36:16;;;;;;;7.37;4.17;;;;;;;13.04;90.84;101505.06;5055087;28;20450;-75
2021/04/19 10:38:43;;;;;;;12.30;6.03;;;;;;;13.20;91.03;101506.47;5054770;28;20433;-73
2021/04/19 10:41:10;;;;;;;7.00;4.10;;;;;;;13.27;90.05;101508.81;5054836;28;20482;-77
2021/04/19 10:43:37;;;;;;;7.73;4.20;;;;;;;13.45;90.13;101496.28;5054727;28;20963;-73
2021/04/19 10:46:25;;;;;;;7.70;4.30;;;;;;;13.59;89.67;101502.56;5054859;28;20438;-73
2021/04/19 10:48:54;;;;;;;6.77;3.60;;;;;;;13.57;88.86;101502.06;5055230;28;20423;-74
2021/04/19 10:51:23;;;;;;;7.50;4.23;;;;;;;13.68;89.05;101499.97;5055844;28;20465;-74
2021/04/19 10:53:49;;;;;;;10.60;4.23;;;;;;;13.76;88.84;101491.91;5055042;28;20884;-73
2021/04/19 10:56:21;;;;;;;5.10;3.90;;;;;;;13.88;89.42;101494.97;5054829;28;20446;-74
2021/04/19 10:58:48;;;;;;;9.63;4.00;;;;;;;14.02;88.22;101502.34;5055158;28;20429;-74
2021/04/19 11:01:20;;;;;;;15.20;4.20;;;;;;;13.92;87.24;101499.81;5054837;28;20490;-74
2021/04/19 11:03:47;;;;;;;7.73;4.57;;;;;;;14.01;87.90;101504.28;5061308;28;20846;-74
2021/04/19 11:06:15;;;;;;;12.13;5.37;;;;;;;14.04;88.55;101503.69;5054473;28;20449;-74
2021/04/19 11:08:56;;;;;;;11.23;5.03;;;;;;;13.97;88.34;101507.91;5054463;28;20449;-74
2021/04/19 11:11:25;;;;;;;6.00;4.40;;;;;;;13.74;88.47;101496.88;5053791;28;20910;-74
2021/04/19 11:13:52;;;;;;;12.50;5.10;;;;;;;13.52;89.04;101502.16;5054015;28;20967;-74
2021/04/19 11:16:20;;;;;;;5.40;4.40;;;;;;;13.56;89.81;101497.75;5054356;28;20442;-73
2021/04/19 11:18:46;;;;;;;6.80;4.50;;;;;;;13.80;90.42;101492.13;5053559;28;20439;-74
2021/04/19 11:21:27;;;;;;;7.97;4.30;;;;;;;14.26;87.20;101485.81;5054366;28;20519;-73
2021/04/19 11:24:07;;;;;;;10.40;5.30;;;;;;;14.46;85.95;101490.03;5054278;28;20422;-73
2021/04/19 11:26:34;;;;;;;8.27;4.40;;;;;;;14.28;86.22;101489.84;5054252;28;20431;-73
2021/04/19 11:29:01;;;;;;;6.40;4.37;;;;;;;14.27;86.24;101492.88;5053787;28;20441;-73
2021/04/19 11:31:27;;;;;;;5.60;5.00;;;;;;;14.23;85.61;101483.69;5053964;28;20465;-73